createdAt,value
2019-06-26T00:01:17.412Z,9.37
2019-06-26T00:03:46.309Z,9.50
2019-06-26T00:06:15.213Z,8.93
2019-06-26T00:08:44.131Z,9.63
2019-06-26T00:11:13.617Z,8.67
2019-06-26T00:13:42.468Z,8.07
2019-06-26T00:16:11.441Z,8.77
2019-06-26T00:18:40.351Z,8.53
2019-06-26T00:21:09.574Z,8.97
2019-06-26T00:23:38.418Z,8.57
2019-06-26T00:26:07.254Z,9.00
2019-06-26T00:28:36.270Z,8.63
2019-06-26T00:31:05.197Z,8.50
2019-06-26T00:33:34.115Z,9.80
2019-06-26T00:36:02.980Z,9.00
2019-06-26T00:38:31.841Z,9.27
2019-06-26T00:41:00.731Z,8.77
2019-06-26T00:43:42.083Z,8.10
2019-06-26T00:46:00.441Z,8.87
2019-06-26T00:48:29.303Z,9.70
2019-06-26T00:50:58.247Z,8.67
2019-06-26T00:53:27.138Z,9.10
2019-06-26T00:55:56.127Z,9.20
2019-06-26T00:58:25.102Z,8.80
2019-06-26T01:00:54.004Z,8.80
2019-06-26T01:03:23.238Z,8.07
2019-06-26T01:05:52.184Z,8.10
2019-06-26T01:08:21.174Z,9.10
2019-06-26T01:10:50.096Z,9.03
2019-06-26T01:13:18.946Z,8.70
2019-06-26T01:15:47.773Z,8.90
2019-06-26T01:18:17.133Z,8.10
2019-06-26T01:20:45.957Z,9.03
2019-06-26T01:23:14.875Z,8.20
2019-06-26T01:25:43.785Z,9.33
2019-06-26T01:28:12.702Z,8.50
2019-06-26T01:30:41.530Z,8.20
2019-06-26T01:33:10.830Z,9.57
2019-06-26T01:35:39.697Z,9.37
2019-06-26T01:38:08.722Z,9.90
2019-06-26T01:40:37.818Z,10.23
2019-06-26T01:43:06.733Z,10.60
2019-06-26T01:45:35.738Z,9.37
2019-06-26T01:48:04.731Z,10.43
2019-06-26T01:50:33.612Z,10.53
2019-06-26T01:53:02.769Z,9.43
2019-06-26T01:55:31.877Z,11.17
2019-06-26T01:58:00.960Z,12.40
2019-06-26T02:00:29.869Z,10.70
2019-06-26T02:02:58.708Z,10.53
2019-06-26T02:05:27.624Z,10.13
2019-06-26T02:07:56.603Z,11.07
2019-06-26T02:10:25.534Z,10.63
2019-06-26T02:12:54.353Z,11.03
2019-06-26T02:15:23.286Z,10.13
2019-06-26T02:17:52.212Z,10.77
2019-06-26T02:20:21.311Z,11.97
2019-06-26T02:22:50.236Z,10.70
2019-06-26T02:25:19.422Z,10.40
2019-06-26T02:27:48.330Z,10.57
2019-06-26T02:30:17.563Z,10.73
2019-06-26T02:32:46.474Z,11.67
2019-06-26T02:35:15.937Z,10.77
2019-06-26T02:37:45.045Z,10.80
2019-06-26T02:40:14.844Z,11.93
2019-06-26T02:42:43.678Z,10.50
2019-06-26T02:45:12.771Z,10.97
2019-06-26T02:47:41.646Z,10.63
2019-06-26T02:50:10.961Z,10.47
2019-06-26T02:52:39.951Z,10.40
2019-06-26T02:55:09.962Z,10.77
2019-06-26T02:57:38.905Z,9.63
2019-06-26T03:00:08.445Z,10.30
2019-06-26T03:02:37.343Z,10.67
2019-06-26T03:05:06.374Z,10.67
2019-06-26T03:07:35.494Z,10.27
2019-06-26T03:10:05.659Z,11.00
2019-06-26T03:12:34.927Z,10.30
2019-06-26T03:15:08.862Z,10.53
2019-06-26T03:17:34.934Z,9.97
2019-06-26T03:20:04.473Z,9.87
2019-06-26T03:22:33.718Z,10.70
2019-06-26T03:25:02.639Z,10.13
2019-06-26T03:27:31.593Z,10.30
2019-06-26T03:30:00.668Z,10.97
2019-06-26T03:32:29.612Z,11.17
2019-06-26T03:34:58.715Z,11.20
2019-06-26T03:37:27.626Z,10.07
2019-06-26T03:39:56.800Z,10.37
2019-06-26T03:42:25.621Z,11.00
2019-06-26T03:44:54.459Z,11.43
2019-06-26T03:47:23.285Z,10.70
2019-06-26T03:49:52.127Z,10.13
2019-06-26T03:52:20.966Z,11.27
2019-06-26T03:54:49.803Z,11.67
2019-06-26T03:57:18.726Z,10.53
2019-06-26T03:59:47.824Z,10.70
2019-06-26T04:02:16.755Z,11.73
2019-06-26T04:04:45.622Z,11.67
2019-06-26T04:07:14.632Z,11.67
2019-06-26T04:09:43.869Z,12.13
2019-06-26T04:12:12.980Z,11.43
2019-06-26T04:14:41.811Z,12.07
2019-06-26T04:17:11.049Z,10.90
2019-06-26T04:19:39.886Z,11.07
2019-06-26T04:22:08.725Z,11.93
2019-06-26T04:24:38.128Z,11.53
2019-06-26T04:27:06.961Z,11.70
2019-06-26T04:29:35.829Z,11.80
2019-06-26T04:32:04.881Z,10.70
2019-06-26T04:34:33.789Z,11.40
2019-06-26T04:37:02.718Z,10.67
2019-06-26T04:39:31.646Z,10.97
2019-06-26T04:42:00.493Z,10.60
2019-06-26T04:44:29.321Z,11.77
2019-06-26T04:46:58.174Z,10.80
2019-06-26T04:49:27.005Z,10.47
2019-06-26T04:51:55.926Z,10.93
2019-06-26T04:54:24.829Z,10.97
2019-06-26T04:56:53.741Z,10.80
2019-06-26T04:59:22.577Z,11.70
2019-06-26T05:01:51.485Z,9.87
2019-06-26T05:04:20.557Z,9.60
2019-06-26T05:06:49.475Z,9.77
2019-06-26T05:09:18.614Z,9.27
2019-06-26T05:11:47.562Z,9.93
2019-06-26T05:14:16.385Z,9.03
2019-06-26T05:16:45.335Z,8.87
2019-06-26T05:19:14.797Z,9.33
2019-06-26T05:21:43.736Z,8.97
2019-06-26T05:24:12.557Z,8.93
2019-06-26T05:26:41.387Z,8.47
2019-06-26T05:29:10.301Z,8.57
2019-06-26T05:31:39.369Z,8.17
2019-06-26T05:34:10.913Z,8.70
2019-06-26T05:36:39.117Z,8.80
2019-06-26T05:39:08.168Z,8.30
2019-06-26T05:41:37.065Z,8.30
2019-06-26T05:44:06.266Z,8.23
2019-06-26T05:46:35.244Z,7.80
2019-06-26T05:49:04.295Z,7.47
2019-06-26T05:51:32.717Z,8.37
2019-06-26T05:54:01.702Z,8.10
2019-06-26T05:56:30.522Z,7.60
2019-06-26T05:58:59.426Z,8.73
2019-06-26T06:01:28.339Z,8.20
2019-06-26T06:03:57.278Z,7.87
2019-06-26T06:06:40.751Z,7.27
2019-06-26T06:08:57.180Z,7.30
2019-06-26T06:11:26.140Z,8.10
2019-06-26T06:13:54.961Z,8.33
2019-06-26T06:16:23.861Z,8.67
2019-06-26T06:18:52.762Z,8.70
2019-06-26T06:21:21.637Z,8.30
2019-06-26T06:23:50.560Z,8.77
2019-06-26T06:26:19.445Z,8.37
2019-06-26T06:28:48.278Z,8.30
2019-06-26T06:31:17.241Z,8.83
2019-06-26T06:33:46.165Z,7.83
2019-06-26T06:36:15.137Z,7.73
2019-06-26T06:38:44.409Z,8.70
2019-06-26T06:41:13.562Z,8.03
2019-06-26T06:43:42.479Z,8.73
2019-06-26T06:46:11.426Z,7.37
2019-06-26T06:48:40.705Z,7.67
2019-06-26T06:51:09.873Z,8.10
2019-06-26T06:53:38.970Z,7.80
2019-06-26T06:56:07.856Z,7.07
2019-06-26T06:58:36.749Z,7.83
2019-06-26T07:01:05.667Z,8.20
2019-06-26T07:03:34.529Z,8.40
2019-06-26T07:06:03.445Z,7.10
2019-06-26T07:08:32.557Z,7.87
2019-06-26T07:11:01.627Z,8.33
2019-06-26T07:13:30.821Z,7.33
2019-06-26T07:15:59.814Z,5.70
2019-06-26T07:18:28.709Z,6.73
2019-06-26T07:20:57.564Z,7.80
2019-06-26T07:23:26.480Z,6.73
2019-06-26T07:25:55.779Z,7.50
2019-06-26T07:28:24.593Z,5.77
2019-06-26T07:30:53.430Z,6.53
2019-06-26T07:33:22.536Z,6.13
2019-06-26T07:35:51.521Z,5.63
2019-06-26T07:38:20.621Z,6.40
2019-06-26T07:40:49.452Z,6.57
2019-06-26T07:43:18.425Z,6.47
2019-06-26T07:45:47.842Z,6.37
2019-06-26T07:48:16.742Z,6.17
2019-06-26T07:50:45.673Z,6.43
2019-06-26T07:53:14.524Z,7.30
2019-06-26T07:55:43.661Z,6.80
2019-06-26T07:58:12.922Z,6.70
2019-06-26T08:00:42.125Z,7.23
2019-06-26T08:03:10.978Z,6.33
2019-06-26T08:05:42.875Z,6.40
2019-06-26T08:08:14.563Z,7.23
2019-06-26T08:10:42.715Z,7.30
2019-06-26T08:13:11.686Z,6.37
2019-06-26T08:15:40.801Z,7.23
2019-06-26T08:18:09.741Z,6.22
2019-06-26T08:20:51.889Z,5.83
2019-06-26T08:23:09.465Z,6.13
2019-06-26T08:25:38.297Z,6.37
2019-06-26T08:28:07.437Z,6.40
2019-06-26T08:30:36.489Z,6.57
2019-06-26T08:33:05.684Z,7.45
2019-06-26T08:35:34.505Z,7.15
2019-06-26T08:38:11.166Z,6.95
2019-06-26T08:40:33.963Z,7.00
2019-06-26T08:43:02.856Z,7.28
2019-06-26T08:45:31.825Z,6.47
2019-06-26T08:48:16.692Z,7.35
2019-06-26T08:50:31.350Z,6.35
2019-06-26T08:53:00.309Z,7.65
2019-06-26T08:55:29.270Z,6.42
2019-06-26T08:57:58.086Z,6.80
2019-06-26T09:00:27.010Z,6.53
2019-06-26T09:02:55.857Z,7.30
2019-06-26T09:05:24.781Z,7.25
2019-06-26T09:07:53.728Z,7.55
2019-06-26T09:10:22.965Z,6.47
2019-06-26T09:12:52.118Z,5.92
2019-06-26T09:15:21.077Z,6.65
2019-06-26T09:17:50.016Z,6.65
2019-06-26T09:20:25.774Z,5.87
2019-06-26T09:22:54.601Z,6.33
2019-06-26T09:25:23.601Z,5.75
2019-06-26T09:27:52.608Z,6.47
2019-06-26T09:30:21.879Z,7.30
2019-06-26T09:32:50.711Z,6.67
2019-06-26T09:35:20.011Z,5.90
2019-06-26T09:37:48.897Z,7.17
2019-06-26T09:40:18.143Z,7.03
2019-06-26T09:42:47.049Z,6.55
2019-06-26T09:45:16.118Z,7.28
2019-06-26T09:47:45.021Z,6.60
2019-06-26T09:50:13.913Z,6.20
2019-06-26T09:52:43.096Z,6.45
2019-06-26T09:55:12.984Z,5.80
2019-06-26T09:57:41.982Z,6.40
2019-06-26T10:00:12.857Z,6.33
2019-06-26T10:02:41.846Z,6.03
2019-06-26T10:05:11.284Z,5.25
2019-06-26T10:07:40.258Z,5.35
2019-06-26T10:10:10.010Z,6.12
2019-06-26T10:12:39.663Z,6.47
2019-06-26T10:15:09.876Z,6.00
2019-06-26T10:17:38.882Z,5.97
2019-06-26T10:20:09.402Z,6.45
2019-06-26T10:22:38.381Z,6.42
2019-06-26T10:25:11.094Z,5.90
2019-06-26T10:27:38.229Z,5.42
2019-06-26T10:30:08.296Z,6.47
2019-06-26T10:32:37.213Z,6.17
2019-06-26T10:35:06.468Z,6.35
2019-06-26T10:37:35.319Z,6.92
2019-06-26T10:40:04.630Z,5.10
2019-06-26T10:42:33.865Z,6.47
2019-06-26T10:45:02.702Z,6.37
2019-06-26T10:47:31.801Z,6.75
2019-06-26T10:50:00.729Z,6.33
2019-06-26T10:52:29.633Z,5.85
2019-06-26T10:54:58.547Z,5.80
2019-06-26T10:57:27.387Z,6.17
2019-06-26T10:59:56.493Z,6.55
2019-06-26T11:02:25.349Z,6.58
2019-06-26T11:04:54.186Z,6.47
2019-06-26T11:07:23.323Z,7.25
2019-06-26T11:09:52.157Z,7.17
2019-06-26T11:12:21.173Z,6.50
2019-06-26T11:14:50.141Z,6.12
2019-06-26T11:17:18.961Z,5.80
2019-06-26T11:19:47.829Z,6.37
2019-06-26T11:22:16.769Z,5.85
2019-06-26T11:24:45.637Z,5.90
2019-06-26T11:27:14.534Z,7.25
2019-06-26T11:29:43.686Z,6.15
2019-06-26T11:32:12.521Z,5.65
2019-06-26T11:34:41.445Z,5.95
2019-06-26T11:37:10.432Z,7.22
2019-06-26T11:39:39.419Z,6.70
2019-06-26T11:42:08.344Z,5.78
2019-06-26T11:44:37.247Z,5.58
2019-06-26T11:47:06.158Z,6.22
2019-06-26T11:49:34.974Z,5.45
2019-06-26T11:52:03.977Z,6.65
2019-06-26T11:54:32.861Z,5.90
2019-06-26T11:57:01.779Z,6.85
2019-06-26T11:59:30.614Z,6.90
2019-06-26T12:01:59.537Z,6.45
2019-06-26T12:04:28.481Z,6.12
2019-06-26T12:06:57.741Z,5.72
2019-06-26T12:09:26.829Z,6.33
2019-06-26T12:11:55.679Z,6.50
2019-06-26T12:14:24.829Z,6.47
2019-06-26T12:16:53.673Z,6.62
2019-06-26T12:19:23.589Z,6.03
2019-06-26T12:21:52.826Z,5.55
2019-06-26T12:24:21.912Z,5.87
2019-06-26T12:26:50.755Z,5.85
2019-06-26T12:29:19.729Z,4.90
2019-06-26T12:31:48.637Z,5.78
2019-06-26T12:34:17.461Z,5.53
2019-06-26T12:36:46.385Z,5.55
2019-06-26T12:39:15.256Z,5.70
2019-06-26T12:41:44.084Z,5.10
2019-06-26T12:44:12.904Z,5.47
2019-06-26T12:46:41.893Z,6.12
2019-06-26T12:49:10.862Z,5.30
2019-06-26T12:51:39.815Z,5.58
2019-06-26T12:54:08.688Z,6.15
2019-06-26T12:56:37.809Z,5.85
2019-06-26T12:59:06.705Z,5.72
2019-06-26T13:01:35.627Z,4.90
2019-06-26T13:04:04.632Z,5.90
2019-06-26T13:06:33.630Z,5.10
2019-06-26T13:09:02.845Z,5.87
2019-06-26T13:11:32.569Z,5.25
2019-06-26T13:14:03.082Z,5.83
2019-06-26T13:16:31.948Z,5.87
2019-06-26T13:19:00.989Z,5.25
2019-06-26T13:21:29.898Z,4.70
2019-06-26T13:23:59.049Z,5.83
2019-06-26T13:26:27.967Z,5.65
2019-06-26T13:28:56.837Z,6.22
2019-06-26T13:31:25.662Z,6.05
2019-06-26T13:33:54.489Z,6.05
2019-06-26T13:36:23.405Z,6.28
2019-06-26T13:38:52.301Z,5.50
2019-06-26T13:41:21.121Z,6.30
2019-06-26T13:43:50.052Z,6.08
2019-06-26T13:46:18.904Z,6.67
2019-06-26T13:48:47.838Z,6.10
2019-06-26T13:51:16.746Z,6.03
2019-06-26T13:53:45.595Z,5.60
2019-06-26T13:56:14.429Z,6.33
2019-06-26T13:58:43.361Z,5.95
2019-06-26T14:01:12.277Z,5.60
2019-06-26T14:03:41.108Z,6.12
2019-06-26T14:06:10.139Z,5.37
2019-06-26T14:08:39.050Z,5.95
2019-06-26T14:11:07.977Z,5.92
2019-06-26T14:13:36.840Z,5.70
2019-06-26T14:16:05.767Z,5.95
2019-06-26T14:18:34.771Z,6.30
2019-06-26T14:21:03.694Z,5.22
2019-06-26T14:23:32.718Z,6.25
2019-06-26T14:26:01.613Z,7.20
2019-06-26T14:28:30.512Z,6.37
2019-06-26T14:30:59.437Z,6.72
2019-06-26T14:33:28.319Z,5.90
2019-06-26T14:35:57.238Z,6.15
2019-06-26T14:38:26.097Z,6.17
2019-06-26T14:40:55.093Z,6.05
2019-06-26T14:43:24.173Z,6.15
2019-06-26T14:45:53.069Z,6.58
2019-06-26T14:48:21.908Z,6.10
2019-06-26T14:50:50.821Z,6.22
2019-06-26T14:53:19.718Z,6.65
2019-06-26T14:55:48.600Z,6.30
2019-06-26T14:58:17.430Z,6.22
2019-06-26T15:00:46.264Z,6.47
2019-06-26T15:03:15.542Z,6.55
2019-06-26T15:05:44.750Z,6.35
2019-06-26T15:08:14.139Z,6.05
2019-06-26T15:10:43.053Z,6.08
2019-06-26T15:13:12.051Z,6.78
2019-06-26T15:15:41.019Z,6.78
2019-06-26T15:18:11.636Z,6.83
2019-06-26T15:20:40.792Z,5.95
2019-06-26T15:23:09.680Z,6.08
2019-06-26T15:25:38.526Z,6.50
2019-06-26T15:28:10.394Z,6.28
2019-06-26T15:30:38.277Z,5.97
2019-06-26T15:33:07.505Z,6.10
2019-06-26T15:35:36.478Z,6.90
2019-06-26T15:38:05.448Z,6.10
2019-06-26T15:40:34.476Z,6.60
2019-06-26T15:43:03.713Z,6.80
2019-06-26T15:45:33.273Z,6.17
2019-06-26T15:48:02.780Z,6.72
2019-06-26T15:50:32.172Z,6.70
2019-06-26T15:53:02.686Z,6.40
2019-06-26T15:55:34.018Z,6.35
2019-06-26T15:58:04.813Z,6.58
2019-06-26T16:00:34.190Z,6.72
2019-06-26T16:03:03.964Z,6.25
2019-06-26T16:05:33.355Z,6.53
2019-06-26T16:08:03.253Z,7.05
2019-06-26T16:10:34.606Z,6.05
2019-06-26T16:13:02.932Z,6.03
2019-06-26T16:15:32.482Z,6.55
2019-06-26T16:18:09.652Z,6.20
2019-06-26T16:20:38.485Z,5.45
2019-06-26T16:23:07.375Z,7.25
2019-06-26T16:25:36.531Z,6.25
2019-06-26T16:28:06.175Z,7.22
2019-06-26T16:30:35.461Z,6.65
2019-06-26T16:33:04.445Z,6.03
2019-06-26T16:35:33.468Z,5.92
2019-06-26T16:38:02.529Z,6.42
2019-06-26T16:40:31.537Z,5.65
2019-06-26T16:43:00.922Z,5.58
2019-06-26T16:45:29.753Z,6.97
2019-06-26T16:47:58.619Z,6.72
2019-06-26T16:50:27.493Z,6.55
2019-06-26T16:52:56.411Z,6.53
2019-06-26T16:55:25.245Z,6.90
2019-06-26T16:57:54.078Z,7.78
2019-06-26T17:00:23.066Z,6.62
2019-06-26T17:02:51.898Z,7.67
2019-06-26T17:05:21.241Z,7.60
2019-06-26T17:07:50.138Z,6.75
2019-06-26T17:10:19.226Z,7.70
2019-06-26T17:12:48.131Z,6.50
2019-06-26T17:15:17.259Z,9.53
2019-06-26T17:17:46.191Z,9.15
2019-06-26T17:20:15.286Z,8.73
2019-06-26T17:22:44.326Z,8.30
2019-06-26T17:25:13.637Z,8.08
2019-06-26T17:27:42.540Z,6.60
2019-06-26T17:30:11.896Z,8.20
2019-06-26T17:32:40.913Z,6.87
2019-06-26T17:35:09.998Z,6.65
2019-06-26T17:37:38.938Z,8.28
2019-06-26T17:40:08.514Z,8.25
2019-06-26T17:42:37.412Z,7.75
2019-06-26T17:45:06.723Z,7.60
2019-06-26T17:47:35.695Z,7.47
2019-06-26T17:50:05.074Z,7.00
2019-06-26T17:52:38.057Z,5.92
2019-06-26T17:55:05.728Z,7.53
2019-06-26T17:57:34.580Z,6.55
2019-06-26T18:00:04.461Z,7.03
2019-06-26T18:02:33.370Z,8.03
2019-06-26T18:05:02.291Z,6.75
2019-06-26T18:07:31.125Z,6.58
2019-06-26T18:09:59.941Z,7.03
2019-06-26T18:12:28.845Z,7.85
2019-06-26T18:14:57.685Z,7.62
2019-06-26T18:17:26.814Z,6.75
2019-06-26T18:19:55.660Z,6.70
2019-06-26T18:22:24.579Z,6.65
2019-06-26T18:24:53.627Z,6.72
2019-06-26T18:27:22.490Z,7.83
2019-06-26T18:29:51.409Z,7.20
2019-06-26T18:32:20.401Z,7.00
2019-06-26T18:34:49.226Z,7.60
2019-06-26T18:37:18.063Z,9.53
2019-06-26T18:39:46.965Z,8.45
2019-06-26T18:42:15.798Z,8.45
2019-06-26T18:44:44.617Z,8.35
2019-06-26T18:47:13.443Z,8.55
2019-06-26T18:49:42.746Z,9.78
2019-06-26T18:52:11.674Z,8.58
2019-06-26T18:54:40.742Z,9.80
2019-06-26T18:57:09.582Z,9.78
2019-06-26T18:59:41.393Z,11.20
2019-06-26T19:02:09.054Z,11.12
2019-06-26T19:04:37.891Z,10.72
2019-06-26T19:07:07.547Z,10.58
2019-06-26T19:09:36.498Z,9.15
2019-06-26T19:12:05.855Z,10.10
2019-06-26T19:14:34.751Z,10.53
2019-06-26T19:17:03.650Z,10.70
2019-06-26T19:19:33.053Z,12.15
2019-06-26T19:22:02.139Z,10.82
2019-06-26T19:24:31.034Z,10.90
2019-06-26T19:27:00.145Z,11.38
2019-06-26T19:29:28.994Z,10.23
2019-06-26T19:31:57.885Z,12.28
2019-06-26T19:34:27.094Z,11.43
2019-06-26T19:36:55.929Z,11.68
2019-06-26T19:39:24.786Z,11.43
2019-06-26T19:41:53.802Z,11.80
2019-06-26T19:44:22.744Z,11.35
2019-06-26T19:46:52.002Z,11.18
2019-06-26T19:49:20.986Z,12.28
2019-06-26T19:51:49.818Z,10.88
2019-06-26T19:54:27.055Z,11.50
2019-06-26T19:56:49.306Z,10.75
2019-06-26T19:59:18.274Z,12.35
2019-06-26T20:01:51.260Z,10.40
2019-06-26T20:04:18.085Z,10.98
2019-06-26T20:06:46.985Z,10.78
2019-06-26T20:09:15.921Z,10.78
2019-06-26T20:11:44.767Z,11.22
2019-06-26T20:14:13.978Z,11.25
2019-06-26T20:16:42.922Z,10.63
2019-06-26T20:19:12.647Z,10.43
2019-06-26T20:21:41.475Z,11.18
2019-06-26T20:24:10.401Z,10.75
2019-06-26T20:26:40.542Z,10.80
2019-06-26T20:29:09.433Z,11.80
2019-06-26T20:31:38.487Z,10.63
2019-06-26T20:34:07.426Z,11.10
2019-06-26T20:36:36.452Z,11.13
2019-06-26T20:39:06.373Z,10.93
2019-06-26T20:41:35.358Z,11.03
2019-06-26T20:44:04.769Z,11.90
2019-06-26T20:46:33.606Z,12.13
2019-06-26T20:49:02.477Z,10.85
2019-06-26T20:51:31.440Z,13.35
2019-06-26T20:54:00.381Z,13.78
2019-06-26T20:56:29.320Z,11.83
2019-06-26T20:58:58.378Z,12.23
2019-06-26T21:01:27.349Z,13.43
2019-06-26T21:03:56.523Z,13.00
2019-06-26T21:06:25.473Z,12.88
2019-06-26T21:08:54.435Z,14.67
2019-06-26T21:11:23.302Z,13.63
2019-06-26T21:13:55.197Z,14.37
2019-06-26T21:16:24.042Z,14.47
2019-06-26T21:18:52.881Z,13.80
2019-06-26T21:21:21.812Z,14.57
2019-06-26T21:23:50.735Z,13.47
2019-06-26T21:26:19.694Z,13.73
2019-06-26T21:28:48.696Z,14.20
2019-06-26T21:31:17.998Z,13.70
2019-06-26T21:33:47.039Z,13.30
2019-06-26T21:36:16.005Z,13.93
2019-06-26T21:38:44.962Z,14.83
2019-06-26T21:41:14.315Z,14.03
2019-06-26T21:43:43.537Z,16.17
2019-06-26T21:46:12.454Z,15.40
2019-06-26T21:48:41.277Z,13.90
2019-06-26T21:51:10.149Z,14.07
2019-06-26T21:53:39.025Z,14.13
2019-06-26T21:56:09.213Z,13.03
2019-06-26T21:58:38.135Z,13.77
2019-06-26T22:01:07.389Z,13.57
2019-06-26T22:03:36.359Z,14.10
2019-06-26T22:06:05.379Z,13.57
2019-06-26T22:08:34.410Z,13.47
2019-06-26T22:11:03.555Z,13.60
2019-06-26T22:13:32.369Z,13.87
2019-06-26T22:16:01.248Z,12.77
2019-06-26T22:18:30.085Z,13.30
2019-06-26T22:20:58.917Z,13.97
2019-06-26T22:23:27.885Z,13.30
2019-06-26T22:25:56.892Z,14.13
2019-06-26T22:28:25.711Z,15.00
2019-06-26T22:30:54.725Z,13.60
2019-06-26T22:33:23.979Z,13.73
2019-06-26T22:35:52.859Z,14.63
2019-06-26T22:38:21.778Z,13.33
2019-06-26T22:40:50.722Z,13.83
2019-06-26T22:43:19.744Z,13.13
2019-06-26T22:45:49.053Z,13.43
2019-06-26T22:48:17.996Z,13.80
2019-06-26T22:50:47.022Z,12.93
2019-06-26T22:53:15.932Z,12.67
2019-06-26T22:55:45.027Z,14.57
2019-06-26T22:58:13.930Z,13.27
2019-06-26T23:00:42.911Z,13.83
2019-06-26T23:03:11.866Z,13.17
2019-06-26T23:05:40.696Z,14.23
2019-06-26T23:08:09.616Z,12.90
2019-06-26T23:10:38.459Z,14.27
2019-06-26T23:13:09.616Z,13.33
2019-06-26T23:15:38.086Z,12.10
2019-06-26T23:18:07.454Z,13.80
2019-06-26T23:20:36.375Z,13.57
2019-06-26T23:23:05.278Z,12.70
2019-06-26T23:25:34.618Z,14.33
2019-06-26T23:28:03.790Z,13.27
2019-06-26T23:30:32.792Z,14.63
2019-06-26T23:33:01.876Z,14.90
2019-06-26T23:35:30.716Z,12.17
2019-06-26T23:37:59.559Z,12.97
2019-06-26T23:40:28.466Z,12.60
2019-06-26T23:42:57.323Z,14.10
2019-06-26T23:45:26.612Z,12.80
2019-06-26T23:47:55.534Z,12.13
2019-06-26T23:50:24.368Z,12.87
2019-06-26T23:52:53.242Z,12.27
2019-06-26T23:55:22.079Z,12.80
2019-06-26T23:57:58.985Z,13.97
